Time;durP1;ratioP1;P1;durP2;ratioP2;P2;SDS_P1;SDS_P2;PMS_P1;PMS_P2;Temp;Humidity;BMP_temperature;BMP_pressure;BME280_temperature;BME280_humidity;BME280_pressure;Samples;Min_cycle;Max_cycle;Signal;HPM_P1;HPM_P2
2023/04/19 00:01:32;;;;;;;8.45;5.63;;;9.20;95.20;;;;;;6214803;23;20187;-70
2023/04/19 00:03:59;;;;;;;6.85;4.80;;;9.10;95.40;;;;;;6215625;23;20231;-70
2023/04/19 00:06:29;;;;;;;6.20;5.10;;;9.10;95.40;;;;;;6216311;23;20498;-69
2023/04/19 00:08:56;;;;;;;7.30;5.45;;;9.10;95.30;;;;;;6215642;23;20192;-69
2023/04/19 00:11:23;;;;;;;7.00;5.38;;;9.10;95.30;;;;;;6216956;23;20164;-69
2023/04/19 00:13:50;;;;;;;6.70;5.15;;;9.10;95.50;;;;;;6220051;23;20223;-69
2023/04/19 00:16:18;;;;;;;10.98;5.15;;;9.00;95.50;;;;;;6216391;23;20239;-71
2023/04/19 00:18:45;;;;;;;7.15;5.32;;;9.00;95.90;;;;;;6215917;23;20160;-70
2023/04/19 00:21:12;;;;;;;7.15;5.10;;;9.00;96.00;;;;;;6215139;23;20160;-71
2023/04/19 00:23:39;;;;;;;8.25;5.30;;;9.10;96.20;;;;;;6216138;23;20486;-70
2023/04/19 00:26:06;;;;;;;10.52;5.25;;;9.00;96.40;;;;;;6215836;23;20195;-70
2023/04/19 00:28:34;;;;;;;9.65;5.32;;;8.90;96.70;;;;;;6217527;23;20179;-71
2023/04/19 00:31:00;;;;;;;7.88;5.25;;;8.90;96.90;;;;;;6217450;23;20241;-69
2023/04/19 00:33:29;;;;;;;7.85;5.97;;;8.80;97.10;;;;;;6219364;23;20195;-70
2023/04/19 00:35:56;;;;;;;9.48;5.60;;;8.80;97.10;;;;;;6219806;23;20218;-69
2023/04/19 00:38:23;;;;;;;8.63;5.55;;;8.70;97.40;;;;;;6219334;23;20198;-69
2023/04/19 00:40:50;;;;;;;10.80;5.10;;;8.70;97.40;;;;;;6216643;23;20203;-68
2023/04/19 00:43:18;;;;;;;6.85;5.80;;;8.70;97.80;;;;;;6215862;23;20206;-69
2023/04/19 00:45:46;;;;;;;9.98;5.80;;;8.60;97.50;;;;;;6215426;23;20205;-69
2023/04/19 00:48:13;;;;;;;7.80;5.55;;;8.60;97.80;;;;;;6215446;23;20190;-71
2023/04/19 00:50:43;;;;;;;10.98;6.20;;;8.50;97.80;;;;;;6214961;23;20199;-70
2023/04/19 00:53:10;;;;;;;6.88;5.80;;;8.50;97.90;;;;;;6215797;23;20494;-70
2023/04/19 00:55:39;;;;;;;7.22;5.03;;;8.50;98.00;;;;;;6215120;23;20196;-69
2023/04/19 00:58:08;;;;;;;8.63;5.43;;;8.50;98.10;;;;;;6215645;23;20160;-71
2023/04/19 01:00:35;;;;;;;7.57;5.88;;;8.40;98.50;;;;;;6213078;23;20164;-69
2023/04/19 01:03:02;;;;;;;7.55;5.20;;;8.40;98.50;;;;;;6215268;23;20251;-69
2023/04/19 01:05:29;;;;;;;9.13;5.60;;;8.40;98.50;;;;;;6215469;23;20281;-70
2023/04/19 01:07:58;;;;;;;11.50;6.63;;;8.30;98.60;;;;;;6215426;23;20190;-70
2023/04/19 01:10:25;;;;;;;6.97;6.28;;;8.40;98.80;;;;;;6213278;23;20622;-70
2023/04/19 01:12:52;;;;;;;10.00;6.90;;;8.30;99.00;;;;;;6215484;23;20202;-70
2023/04/19 01:15:19;;;;;;;10.10;5.95;;;8.30;99.20;;;;;;6215402;23;20494;-69
2023/04/19 01:17:46;;;;;;;7.90;5.97;;;8.30;99.30;;;;;;6215468;23;20167;-70
2023/04/19 01:20:13;;;;;;;7.63;6.68;;;8.30;99.60;;;;;;6214777;23;20526;-69
2023/04/19 01:22:41;;;;;;;9.40;6.68;;;8.30;99.80;;;;;;6214909;23;20242;-70
2023/04/19 01:25:09;;;;;;;12.07;6.95;;;8.40;99.90;;;;;;6215487;23;20231;-69
2023/04/19 01:27:36;;;;;;;10.70;6.68;;;8.30;99.90;;;;;;6215408;23;20186;-69
2023/04/19 01:30:03;;;;;;;11.63;7.50;;;8.20;99.90;;;;;;6214734;23;20180;-70
2023/04/19 01:32:29;;;;;;;14.90;7.63;;;8.30;99.90;;;;;;6215100;23;20160;-69
2023/04/19 01:34:56;;;;;;;10.57;7.32;;;8.30;99.90;;;;;;6214991;23;20732;-69
2023/04/19 01:37:24;;;;;;;8.30;7.07;;;8.20;99.90;;;;;;6215527;23;20166;-71
2023/04/19 01:39:52;;;;;;;12.77;7.75;;;8.20;99.90;;;;;;6214306;23;20164;-70
2023/04/19 01:42:19;;;;;;;9.95;6.50;;;8.10;99.90;;;;;;6214936;23;20160;-69
2023/04/19 01:44:46;;;;;;;9.27;6.40;;;8.10;99.90;;;;;;6214935;23;20207;-69
2023/04/19 01:47:13;;;;;;;13.93;8.40;;;8.00;99.90;;;;;;6215270;23;20247;-69
2023/04/19 01:49:40;;;;;;;10.60;7.70;;;8.00;99.90;;;;;;6214408;23;20215;-68
2023/04/19 01:52:07;;;;;;;7.70;6.68;;;7.90;99.90;;;;;;6215839;23;20182;-69
2023/04/19 01:54:33;;;;;;;11.23;7.05;;;7.90;99.90;;;;;;6215271;23;20237;-70
2023/04/19 01:57:02;;;;;;;9.13;6.63;;;7.80;99.90;;;;;;6215340;23;20199;-69
2023/04/19 01:59:29;;;;;;;8.80;7.07;;;7.70;99.90;;;;;;6213644;23;20213;-70
2023/04/19 02:01:56;;;;;;;15.55;6.60;;;7.70;99.90;;;;;;6215350;23;20551;-69
2023/04/19 02:04:23;;;;;;;10.55;7.40;;;7.70;99.90;;;;;;6214862;23;20277;-70
2023/04/19 02:06:50;;;;;;;11.05;7.35;;;7.60;99.90;;;;;;6215280;23;20555;-71
2023/04/19 02:09:16;;;;;;;9.30;6.68;;;7.60;99.90;;;;;;6217047;23;20270;-69
2023/04/19 02:11:44;;;;;;;10.25;6.35;;;7.60;99.90;;;;;;6215976;23;20213;-70
2023/04/19 02:14:13;;;;;;;8.43;5.85;;;7.50;99.90;;;;;;6216828;23;20286;-70
2023/04/19 02:16:39;;;;;;;8.75;6.78;;;7.50;99.90;;;;;;6216957;23;20242;-70
2023/04/19 02:19:12;;;;;;;10.75;6.72;;;7.50;99.90;;;;;;6217303;23;20163;-70
2023/04/19 02:21:39;;;;;;;10.23;6.85;;;7.50;99.90;;;;;;6217009;23;20195;-69
2023/04/19 02:24:13;;;;;;;13.65;7.55;;;7.40;99.90;;;;;;6217467;23;20238;-70
2023/04/19 02:26:40;;;;;;;9.85;6.75;;;7.30;99.90;;;;;;6216791;23;20167;-69
2023/04/19 02:29:07;;;;;;;9.23;5.70;;;7.30;99.90;;;;;;6216762;23;20228;-71
2023/04/19 02:31:36;;;;;;;7.82;6.00;;;7.30;99.90;;;;;;6216469;23;20201;-70
2023/04/19 02:34:03;;;;;;;10.10;6.93;;;7.30;99.90;;;;;;6216498;23;20284;-70
2023/04/19 02:36:30;;;;;;;12.65;7.65;;;7.30;99.90;;;;;;6216530;23;20195;-70
2023/04/19 02:38:58;;;;;;;14.15;8.45;;;7.30;99.90;;;;;;6216073;23;20598;-71
2023/04/19 02:41:25;;;;;;;11.63;7.47;;;7.30;99.90;;;;;;6216263;23;20167;-70
2023/04/19 02:43:51;;;;;;;9.52;7.68;;;7.30;99.90;;;;;;6216396;23;20742;-70
2023/04/19 02:46:19;;;;;;;11.15;8.05;;;7.20;99.90;;;;;;6216893;23;20249;-69
2023/04/19 02:48:47;;;;;;;11.55;8.35;;;7.20;99.90;;;;;;6216826;23;20187;-70
2023/04/19 02:51:16;;;;;;;18.92;9.30;;;7.20;99.90;;;;;;6216480;23;20169;-70
2023/04/19 02:53:44;;;;;;;10.82;8.93;;;7.10;99.90;;;;;;6216849;23;20505;-70
2023/04/19 02:56:11;;;;;;;12.57;9.20;;;7.00;99.90;;;;;;6216519;23;20182;-69
2023/04/19 02:58:38;;;;;;;15.05;9.45;;;7.00;99.90;;;;;;6216671;23;20168;-70
2023/04/19 03:01:05;;;;;;;20.05;8.60;;;7.00;99.90;;;;;;6216297;23;20248;-69
2023/04/19 03:03:32;;;;;;;11.88;9.10;;;7.00;99.90;;;;;;6216381;23;20176;-70
2023/04/19 03:06:00;;;;;;;13.15;10.05;;;6.90;99.90;;;;;;6217089;23;20160;-71
2023/04/19 03:08:28;;;;;;;14.82;8.70;;;6.80;99.90;;;;;;6217287;23;20255;-69
2023/04/19 03:10:55;;;;;;;14.60;9.05;;;6.80;99.90;;;;;;6216463;23;20194;-71
2023/04/19 03:13:22;;;;;;;13.10;10.30;;;6.70;99.90;;;;;;6216634;23;20692;-69
2023/04/19 03:15:48;;;;;;;11.73;8.95;;;6.70;99.90;;;;;;6217282;23;20269;-71
2023/04/19 03:18:16;;;;;;;13.63;9.15;;;6.70;99.90;;;;;;6217257;23;20239;-70
2023/04/19 03:20:43;;;;;;;14.10;10.02;;;6.70;99.90;;;;;;6218471;23;20173;-70
2023/04/19 03:23:11;;;;;;;14.43;9.50;;;6.60;99.90;;;;;;6218822;23;20238;-70
2023/04/19 03:25:38;;;;;;;12.82;9.48;;;6.60;99.90;;;;;;6220094;23;20227;-71
2023/04/19 03:28:08;;;;;;;16.13;9.00;;;6.50;99.90;;;;;;6223792;23;20165;-67
2023/04/19 03:30:43;;;;;;;13.20;8.77;;;6.50;99.90;;;;;;6221844;23;20494;-71
2023/04/19 03:33:10;;;;;;;9.98;8.27;;;6.60;99.90;;;;;;6219333;23;20164;-67
2023/04/19 03:35:39;;;;;;;14.18;9.15;;;6.50;99.90;;;;;;6216668;23;20210;-69
2023/04/19 03:38:05;;;;;;;16.85;9.40;;;6.50;99.90;;;;;;6216561;23;20546;-70
2023/04/19 03:40:36;;;;;;;21.17;9.98;;;6.50;99.90;;;;;;6215669;23;20240;-70
2023/04/19 03:43:03;;;;;;;13.68;8.88;;;6.40;99.90;;;;;;6216051;23;20175;-69
2023/04/19 03:45:30;;;;;;;16.85;9.05;;;6.40;99.90;;;;;;6217394;23;20251;-68
2023/04/19 03:47:57;;;;;;;13.48;8.93;;;6.30;99.90;;;;;;6216342;23;20176;-70
2023/04/19 03:50:24;;;;;;;11.00;8.18;;;6.30;99.90;;;;;;6215972;23;20268;-69
2023/04/19 03:52:51;;;;;;;10.77;7.68;;;6.30;99.90;;;;;;6216020;23;20170;-70
2023/04/19 03:55:18;;;;;;;13.82;9.25;;;6.30;99.90;;;;;;6216446;23;20600;-70
2023/04/19 03:57:47;;;;;;;11.45;9.20;;;6.30;99.90;;;;;;6215921;23;20197;-71
2023/04/19 04:00:15;;;;;;;9.63;8.32;;;6.30;99.90;;;;;;6215885;23;20233;-70
2023/04/19 04:02:42;;;;;;;14.15;8.45;;;6.20;99.90;;;;;;6215585;23;20627;-69
2023/04/19 04:05:09;;;;;;;15.70;8.55;;;6.20;99.90;;;;;;6215635;23;20199;-70
2023/04/19 04:07:36;;;;;;;10.05;8.00;;;6.20;99.90;;;;;;6215607;23;20200;-71
2023/04/19 04:10:05;;;;;;;11.57;8.60;;;6.20;99.90;;;;;;6214905;23;20211;-70
2023/04/19 04:12:32;;;;;;;15.18;8.32;;;6.20;99.90;;;;;;6216108;23;20203;-69
2023/04/19 04:15:00;;;;;;;14.35;8.23;;;6.10;99.90;;;;;;6215193;23;20210;-70
2023/04/19 04:17:30;;;;;;;14.13;9.57;;;6.10;99.90;;;;;;6216259;23;20239;-70
2023/04/19 04:19:57;;;;;;;13.77;8.15;;;6.10;99.90;;;;;;6215125;23;20156;-69
2023/04/19 04:22:23;;;;;;;11.07;7.70;;;6.10;99.90;;;;;;6215577;23;20243;-70
2023/04/19 04:24:52;;;;;;;16.35;8.45;;;6.00;99.90;;;;;;6215896;23;20218;-68
2023/04/19 04:27:20;;;;;;;12.07;8.25;;;6.10;99.90;;;;;;6215671;23;20188;-69
2023/04/19 04:29:48;;;;;;;12.82;8.98;;;6.00;99.90;;;;;;6214447;23;20960;-69
2023/04/19 04:32:17;;;;;;;13.48;8.25;;;6.10;99.90;;;;;;6215636;23;20161;-70
2023/04/19 04:34:44;;;;;;;12.75;8.43;;;6.10;99.90;;;;;;6215667;23;20203;-69
2023/04/19 04:37:12;;;;;;;15.52;9.88;;;6.10;99.90;;;;;;6215652;23;20166;-69
2023/04/19 04:39:39;;;;;;;11.77;8.38;;;6.10;99.90;;;;;;6215304;23;20259;-71
2023/04/19 04:42:07;;;;;;;10.88;7.85;;;6.10;99.90;;;;;;6215249;23;20200;-70
2023/04/19 04:44:34;;;;;;;10.82;7.60;;;6.10;99.90;;;;;;6215350;23;20203;-70
2023/04/19 04:47:01;;;;;;;13.18;8.55;;;6.20;99.90;;;;;;6215867;23;20489;-71
2023/04/19 04:49:30;;;;;;;15.30;8.55;;;6.20;99.90;;;;;;6217275;23;20268;-70
2023/04/19 04:51:57;;;;;;;13.65;7.60;;;6.20;99.90;;;;;;6217912;23;20161;-71
2023/04/19 04:54:24;;;;;;;14.40;9.40;;;6.30;99.90;;;;;;6215536;23;20238;-69
2023/04/19 04:56:53;;;;;;;13.25;7.88;;;6.30;99.90;;;;;;6215435;23;20195;-69
2023/04/19 04:59:20;;;;;;;11.20;7.50;;;6.30;99.90;;;;;;6215862;23;20245;-69
2023/04/19 05:01:47;;;;;;;11.73;7.43;;;6.40;99.90;;;;;;6214709;23;20212;-71
2023/04/19 05:04:13;;;;;;;10.18;7.25;;;6.40;99.90;;;;;;6215147;23;20530;-70
2023/04/19 05:06:43;;;;;;;11.75;8.02;;;6.40;99.90;;;;;;6215821;23;20248;-69
2023/04/19 05:09:10;;;;;;;9.52;7.35;;;6.50;99.90;;;;;;6215526;23;20198;-70
2023/04/19 05:11:37;;;;;;;10.90;8.10;;;6.60;99.90;;;;;;6213631;23;20219;-70
2023/04/19 05:14:04;;;;;;;13.95;7.80;;;6.60;99.90;;;;;;6214472;23;20236;-71
2023/04/19 05:16:31;;;;;;;11.60;7.40;;;6.70;99.90;;;;;;6215150;23;20241;-71
2023/04/19 05:18:58;;;;;;;10.68;8.48;;;6.70;99.90;;;;;;6215101;23;20596;-70
2023/04/19 05:21:25;;;;;;;14.73;10.27;;;6.70;99.90;;;;;;6214480;23;20167;-71
2023/04/19 05:23:53;;;;;;;10.35;7.35;;;6.80;99.90;;;;;;6214605;23;20202;-71
2023/04/19 05:26:20;;;;;;;10.45;7.28;;;6.90;99.90;;;;;;6214586;23;20240;-72
2023/04/19 05:28:47;;;;;;;14.23;8.70;;;7.00;99.90;;;;;;6215220;23;20536;-70
2023/04/19 05:31:14;;;;;;;21.85;8.30;;;7.20;99.90;;;;;;6214471;23;20261;-70
2023/04/19 05:33:43;;;;;;;9.82;7.80;;;7.40;99.90;;;;;;6214381;23;20167;-70
2023/04/19 05:36:10;;;;;;;10.88;7.35;;;7.60;99.90;;;;;;6215196;23;20168;-70
2023/04/19 05:38:38;;;;;;;13.57;8.00;;;7.70;99.90;;;;;;6214193;23;20167;-69
2023/04/19 05:41:06;;;;;;;9.07;7.70;;;8.00;99.90;;;;;;6215935;23;20160;-69
2023/04/19 05:43:33;;;;;;;12.85;7.85;;;8.30;99.90;;;;;;6217419;23;20187;-69
2023/04/19 05:46:00;;;;;;;14.00;7.95;;;8.40;99.90;;;;;;6217298;23;20604;-70
2023/04/19 05:48:27;;;;;;;13.45;8.00;;;8.50;99.90;;;;;;6217094;23;20198;-70
2023/04/19 05:50:56;;;;;;;11.77;7.55;;;8.60;99.90;;;;;;6216881;23;20219;-71
2023/04/19 05:53:24;;;;;;;10.07;8.35;;;8.70;99.90;;;;;;6217255;23;20539;-70
2023/04/19 05:55:53;;;;;;;11.27;7.85;;;8.90;99.90;;;;;;6217439;23;20270;-70
2023/04/19 05:58:22;;;;;;;8.48;6.68;;;9.00;99.90;;;;;;6217445;23;20541;-70
2023/04/19 06:00:49;;;;;;;10.23;6.40;;;9.20;99.90;;;;;;6216885;23;20164;-70
2023/04/19 06:03:17;;;;;;;7.65;6.90;;;9.50;99.70;;;;;;6217977;23;20164;-70
2023/04/19 06:05:57;;;;;;;7.70;6.03;;;9.90;99.20;;;;;;6218011;23;20463;-73
2023/04/19 06:08:24;;;;;;;13.20;6.82;;;10.80;97.80;;;;;;6224179;23;20389;-71
2023/04/19 06:10:53;;;;;;;9.00;6.13;;;11.70;95.70;;;;;;6220884;23;20190;-71
2023/04/19 06:13:21;;;;;;;9.00;6.47;;;12.40;94.10;;;;;;6220155;23;20191;-71
2023/04/19 06:15:48;;;;;;;8.80;5.90;;;13.00;92.90;;;;;;6220547;23;20772;-73
2023/04/19 06:18:17;;;;;;;6.38;5.55;;;13.50;92.00;;;;;;6219408;23;20211;-71
2023/04/19 06:20:45;;;;;;;8.02;5.90;;;14.00;90.90;;;;;;6217638;23;20167;-70
2023/04/19 06:23:13;;;;;;;7.70;5.63;;;14.60;90.20;;;;;;6221407;23;20557;-71
2023/04/19 06:25:40;;;;;;;9.90;6.63;;;15.00;88.50;;;;;;6216824;23;20244;-70
2023/04/19 06:28:07;;;;;;;6.82;5.47;;;15.40;86.80;;;;;;6217013;23;20176;-70
2023/04/19 06:30:35;;;;;;;7.43;5.40;;;15.70;85.90;;;;;;6216027;23;20182;-70
2023/04/19 06:33:02;;;;;;;11.10;4.87;;;16.00;84.90;;;;;;6216287;23;20203;-70
2023/04/19 06:35:29;;;;;;;6.30;4.90;;;16.50;83.20;;;;;;6216361;23;20429;-73
2023/04/19 06:37:56;;;;;;;7.20;6.40;;;17.10;82.60;;;;;;6216682;23;20445;-72
2023/04/19 06:40:23;;;;;;;6.97;5.83;;;17.60;79.80;;;;;;6215675;23;20794;-71
2023/04/19 06:42:50;;;;;;;5.70;5.10;;;17.90;78.90;;;;;;6217301;23;20427;-72
2023/04/19 06:45:18;;;;;;;10.30;5.20;;;17.70;77.80;;;;;;6216251;23;20433;-72
2023/04/19 06:47:46;;;;;;;12.00;4.67;;;17.60;77.50;;;;;;6216882;23;20407;-71
2023/04/19 06:50:13;;;;;;;9.60;5.27;;;17.50;77.80;;;;;;6215522;23;20426;-71
2023/04/19 06:52:40;;;;;;;6.30;4.73;;;17.30;78.40;;;;;;6215030;23;20430;-75
2023/04/19 06:55:08;;;;;;;5.57;3.80;;;17.30;77.80;;;;;;6216368;23;20458;-72
2023/04/19 06:57:35;;;;;;;5.73;3.83;;;17.70;77.40;;;;;;6216452;23;20889;-70
2023/04/19 07:00:05;;;;;;;6.23;3.97;;;17.80;75.30;;;;;;6215827;23;20387;-74
2023/04/19 07:02:32;;;;;;;6.70;3.50;;;18.00;75.30;;;;;;6215601;23;20407;-70
2023/04/19 07:05:00;;;;;;;5.10;3.83;;;18.00;75.20;;;;;;6215965;23;20509;-72
2023/04/19 07:07:27;;;;;;;5.40;3.77;;;17.90;74.80;;;;;;6215318;23;20386;-71
2023/04/19 07:09:54;;;;;;;4.60;3.80;;;17.70;74.40;;;;;;6215342;23;20463;-70
2023/04/19 07:12:21;;;;;;;5.70;3.90;;;17.70;75.50;;;;;;6216291;23;20453;-71
2023/04/19 07:14:55;;;;;;;4.93;4.00;;;18.10;74.90;;;;;;6215468;23;20446;-70
2023/04/19 07:17:22;;;;;;;4.93;3.57;;;18.20;73.50;;;;;;6216777;23;20386;-71
2023/04/19 07:19:49;;;;;;;4.90;3.80;;;18.50;74.50;;;;;;6215988;23;20399;-69
2023/04/19 07:22:17;;;;;;;4.77;4.23;;;19.50;73.60;;;;;;6216469;23;20391;-71
2023/04/19 07:24:46;;;;;;;5.80;3.47;;;20.60;70.60;;;;;;6216043;23;20526;-69
2023/04/19 07:27:15;;;;;;;3.53;3.00;;;21.60;68.40;;;;;;6216028;23;20870;-67
2023/04/19 07:29:42;;;;;;;3.07;2.77;;;22.70;66.60;;;;;;6215041;23;20430;-70
2023/04/19 07:32:09;;;;;;;5.30;3.17;;;23.20;63.70;;;;;;6215175;23;20430;-72
2023/04/19 07:34:38;;;;;;;5.00;3.90;;;23.60;61.30;;;;;;6215048;23;20454;-72
2023/04/19 07:37:05;;;;;;;6.40;3.23;;;24.30;60.10;;;;;;6215763;23;20700;-72
2023/04/19 07:39:33;;;;;;;4.50;3.00;;;24.00;59.00;;;;;;6215489;23;20399;-71
2023/04/19 07:42:01;;;;;;;8.20;3.93;;;24.60;58.40;;;;;;6215910;23;20397;-72
2023/04/19 07:44:28;;;;;;;3.47;3.03;;;25.00;57.20;;;;;;6215554;23;20431;-71
2023/04/19 07:46:55;;;;;;;5.97;3.70;;;25.50;56.20;;;;;;6214835;23;20399;-73
2023/04/19 07:49:22;;;;;;;5.10;3.00;;;25.50;55.50;;;;;;6215962;23;20398;-69
2023/04/19 07:51:49;;;;;;;4.00;3.27;;;25.60;55.20;;;;;;6215264;23;20426;-71
2023/04/19 07:54:19;;;;;;;4.10;3.17;;;25.90;54.00;;;;;;6214094;23;20505;-71
2023/04/19 07:56:47;;;;;;;5.90;3.47;;;26.10;53.70;;;;;;6212411;23;20402;-71
2023/04/19 07:59:14;;;;;;;3.63;2.80;;;26.00;53.10;;;;;;6215247;23;20878;-71
2023/04/19 08:01:42;;;;;;;3.00;2.70;;;26.00;53.20;;;;;;6214266;23;20478;-71
2023/04/19 08:04:09;;;;;;;4.47;3.30;;;26.30;53.00;;;;;;6214293;23;20427;-72
2023/04/19 08:06:39;;;;;;;3.63;2.63;;;26.80;52.10;;;;;;6215304;23;20758;-71
2023/04/19 08:09:06;;;;;;;3.90;3.07;;;27.30;51.30;;;;;;6214864;23;20419;-72
2023/04/19 08:11:34;;;;;;;3.93;3.37;;;27.50;49.90;;;;;;6214099;23;20538;-71
2023/04/19 08:14:02;;;;;;;3.63;2.93;;;27.40;50.20;;;;;;6215067;23;20554;-72
2023/04/19 08:16:29;;;;;;;4.10;3.10;;;27.80;49.30;;;;;;6215141;23;20419;-72
2023/04/19 08:18:57;;;;;;;3.67;2.77;;;27.60;49.20;;;;;;6214899;23;20398;-71
2023/04/19 08:21:25;;;;;;;3.80;3.20;;;27.60;49.30;;;;;;6214172;23;20441;-73
2023/04/19 08:23:52;;;;;;;4.60;3.07;;;27.70;48.90;;;;;;6215019;23;20427;-72
2023/04/19 08:26:19;;;;;;;2.83;2.60;;;27.80;48.30;;;;;;6215707;23;20493;-71
2023/04/19 08:28:46;;;;;;;2.67;2.47;;;28.10;47.10;;;;;;6214778;23;20478;-71
2023/04/19 08:31:15;;;;;;;7.20;2.60;;;27.30;44.80;;;;;;6214388;23;20462;-72
2023/04/19 08:33:42;;;;;;;4.83;2.20;;;26.90;44.80;;;;;;6215090;23;20395;-71
2023/04/19 08:36:09;;;;;;;5.10;3.00;;;26.50;44.70;;;;;;6217369;23;20387;-71
2023/04/19 08:38:37;;;;;;;2.30;2.10;;;25.60;43.50;;;;;;6214983;23;20493;-72
2023/04/19 08:41:04;;;;;;;3.80;2.23;;;24.70;44.60;;;;;;6214582;23;20732;-71
2023/04/19 08:43:37;;;;;;;4.00;2.53;;;24.90;45.10;;;;;;6214951;23;20436;-71
2023/04/19 08:46:04;;;;;;;3.20;2.47;;;24.80;44.50;;;;;;6215134;23;20474;-72
2023/04/19 08:48:35;;;;;;;3.83;3.43;;;24.70;44.20;;;;;;6215181;23;20604;-70
2023/04/19 08:51:03;;;;;;;2.60;2.40;;;24.50;44.70;;;;;;6214479;23;20427;-74
2023/04/19 08:53:35;;;;;;;7.33;2.87;;;25.10;45.00;;;;;;6214711;23;20802;-72
2023/04/19 08:56:02;;;;;;;3.80;2.57;;;25.50;43.70;;;;;;6215520;23;20390;-70
2023/04/19 08:58:32;;;;;;;2.50;2.30;;;25.60;44.10;;;;;;6214568;23;20417;-69
2023/04/19 09:00:59;;;;;;;3.73;2.50;;;25.40;43.70;;;;;;6213849;23;20422;-70
2023/04/19 09:03:26;;;;;;;2.57;2.37;;;25.50;44.40;;;;;;6214427;23;20391;-69
2023/04/19 09:05:54;;;;;;;2.50;2.30;;;25.10;43.00;;;;;;6214676;23;20427;-70
2023/04/19 09:08:25;;;;;;;3.30;2.70;;;24.90;43.30;;;;;;6214363;23;20395;-71
2023/04/19 09:10:57;;;;;;;4.77;2.90;;;24.20;42.60;;;;;;6213765;23;20762;-71
2023/04/19 09:13:24;;;;;;;6.20;2.90;;;23.50;44.10;;;;;;6214201;23;20893;-71
2023/04/19 09:15:52;;;;;;;6.50;2.93;;;24.00;45.50;;;;;;6214179;23;20435;-69
2023/04/19 09:18:19;;;;;;;2.67;2.20;;;24.40;44.10;;;;;;6214514;23;20402;-70
2023/04/19 09:20:47;;;;;;;3.60;3.20;;;24.50;44.50;;;;;;6214278;23;20453;-69
2023/04/19 09:23:17;;;;;;;3.57;2.53;;;24.60;43.40;;;;;;6214217;23;20885;-72
2023/04/19 09:25:53;;;;;;;7.57;2.80;;;24.40;43.70;;;;;;6214256;23;20496;-71
2023/04/19 09:28:20;;;;;;;7.10;3.00;;;24.40;43.40;;;;;;6214582;23;20822;-72
2023/04/19 09:30:47;;;;;;;3.53;2.57;;;23.50;42.80;;;;;;6213402;23;20458;-73
2023/04/19 09:33:30;;;;;;;3.23;2.93;;;23.30;44.80;;;;;;6214698;23;20758;-70
2023/04/19 09:35:59;;;;;;;3.67;3.03;;;22.80;44.60;;;;;;6214124;23;20866;-72
2023/04/19 09:38:30;;;;;;;5.03;3.37;;;22.40;45.50;;;;;;6214322;23;20414;-73
2023/04/19 09:41:07;;;;;;;6.87;3.20;;;23.00;47.10;;;;;;6213469;23;20701;-71
2023/04/19 09:43:34;;;;;;;3.00;2.67;;;23.70;45.10;;;;;;6214377;23;20457;-72
2023/04/19 09:46:01;;;;;;;3.40;2.90;;;23.80;44.70;;;;;;6214878;23;20395;-69
2023/04/19 09:48:28;;;;;;;5.70;3.20;;;23.70;45.00;;;;;;6214420;23;20885;-71
2023/04/19 09:50:56;;;;;;;6.13;2.93;;;22.60;45.20;;;;;;6213448;23;20505;-69
2023/04/19 09:53:24;;;;;;;5.63;2.47;;;22.60;46.00;;;;;;6214068;23;20487;-70
2023/04/19 09:55:53;;;;;;;2.60;2.40;;;22.70;47.60;;;;;;6214225;23;20437;-71
2023/04/19 09:58:20;;;;;;;3.53;2.80;;;22.40;45.90;;;;;;6216466;23;20430;-71
2023/04/19 10:00:50;;;;;;;3.93;2.97;;;22.40;46.30;;;;;;6214387;23;20391;-72
2023/04/19 10:03:18;;;;;;;4.10;2.67;;;22.90;46.30;;;;;;6214147;23;20427;-70
2023/04/19 10:05:45;;;;;;;3.20;2.80;;;23.00;46.50;;;;;;6215110;23;20469;-70
2023/04/19 10:08:13;;;;;;;3.00;2.70;;;23.80;45.80;;;;;;6214286;23;20391;-72
2023/04/19 10:10:41;;;;;;;8.13;3.50;;;24.20;45.60;;;;;;6213823;23;20387;-73
2023/04/19 10:13:12;;;;;;;3.60;2.77;;;23.80;43.80;;;;;;6213752;23;20422;-74
2023/04/19 10:15:41;;;;;;;5.27;3.07;;;23.40;43.80;;;;;;6214058;23;20458;-71
2023/04/19 10:18:17;;;;;;;9.10;2.60;;;22.90;43.20;;;;;;6215208;23;20391;-71
2023/04/19 10:20:58;;;;;;;3.40;2.30;;;22.70;41.90;;;;;;6215184;23;20449;-70
2023/04/19 10:23:25;;;;;;;3.13;2.23;;;22.10;41.50;;;;;;6188993;23;20494;-71
2023/04/19 10:26:00;;;;;;;2.90;2.60;;;21.60;41.90;;;;;;6215206;23;20510;-71
2023/04/19 10:28:29;;;;;;;3.40;3.10;;;21.60;44.80;;;;;;6217067;23;20395;-71
2023/04/19 10:31:05;;;;;;;9.80;3.47;;;21.50;43.30;;;;;;6217186;23;20435;-72
2023/04/19 10:33:35;;;;;;;3.40;2.53;;;21.00;43.60;;;;;;6217174;23;20397;-70
2023/04/19 10:36:10;;;;;;;3.30;2.17;;;21.50;45.30;;;;;;6218164;23;20426;-70
2023/04/19 10:38:38;;;;;;;3.43;2.27;;;21.70;44.00;;;;;;6220508;23;20394;-71
2023/04/19 10:41:23;;;;;;;2.70;2.50;;;21.20;43.20;;;;;;6219119;23;20425;-72
2023/04/19 10:44:18;;;;;;;3.37;3.03;;;20.30;43.40;;;;;;6219461;23;20803;-72
2023/04/19 10:46:47;;;;;;;3.73;2.67;;;19.90;44.70;;;;;;6221165;23;20431;-70
2023/04/19 10:49:15;;;;;;;3.13;2.37;;;19.30;46.50;;;;;;6218857;23;20391;-73
2023/04/19 10:51:59;;;;;;;5.40;3.00;;;19.20;45.50;;;;;;6216270;23;20485;-71
2023/04/19 10:54:30;;;;;;;5.27;3.03;;;18.70;45.30;;;;;;6216129;23;20438;-71
2023/04/19 10:57:00;;;;;;;4.40;3.10;;;18.40;44.60;;;;;;6216382;23;20398;-72
2023/04/19 10:59:33;;;;;;;7.00;3.13;;;18.00;46.90;;;;;;6215510;23;20950;-73
2023/04/19 11:02:01;;;;;;;4.10;3.10;;;17.80;47.30;;;;;;6215458;23;20393;-71
2023/04/19 11:04:59;;;;;;;3.63;2.57;;;17.90;49.10;;;;;;6214676;23;20437;-71
2023/04/19 11:07:26;;;;;;;3.20;2.40;;;17.90;47.50;;;;;;6212111;23;20407;-71
2023/04/19 11:09:53;;;;;;;3.70;2.57;;;17.70;46.50;;;;;;6215217;23;20397;-72
2023/04/19 11:12:21;;;;;;;4.70;3.33;;;17.60;46.40;;;;;;6214973;23;20516;-71
2023/04/19 11:14:52;;;;;;;3.17;2.97;;;17.60;46.90;;;;;;6214631;23;20442;-70
2023/04/19 11:17:24;;;;;;;3.23;2.93;;;17.50;47.10;;;;;;6215216;23;20400;-70
2023/04/19 11:19:54;;;;;;;6.00;3.50;;;17.40;46.90;;;;;;6214828;23;20390;-72
2023/04/19 11:22:30;;;;;;;3.60;3.30;;;17.40;47.10;;;;;;6215498;23;20383;-71
2023/04/19 11:24:57;;;;;;;3.47;2.97;;;17.40;45.60;;;;;;6214988;23;20748;-71
2023/04/19 11:27:24;;;;;;;4.13;2.60;;;17.10;46.30;;;;;;6214710;23;20406;-74
2023/04/19 11:29:52;;;;;;;4.33;3.10;;;16.90;46.50;;;;;;6214525;23;20503;-72
2023/04/19 11:32:21;;;;;;;3.40;3.10;;;16.70;46.40;;;;;;6216614;23;20426;-72
2023/04/19 11:34:50;;;;;;;3.70;3.40;;;16.60;46.00;;;;;;6217383;23;20434;-74
2023/04/19 11:37:17;;;;;;;6.47;3.83;;;16.40;45.60;;;;;;6215115;23;20440;-73
2023/04/19 11:39:48;;;;;;;3.53;3.10;;;16.30;45.30;;;;;;6215225;23;20395;-72
2023/04/19 11:42:19;;;;;;;5.93;3.20;;;16.20;46.30;;;;;;6215349;23;20420;-74
2023/04/19 11:44:50;;;;;;;4.47;4.07;;;16.20;46.10;;;;;;6215464;23;20421;-74
2023/04/19 11:47:19;;;;;;;6.83;3.70;;;16.30;47.10;;;;;;6215823;23;20398;-72
2023/04/19 11:49:46;;;;;;;4.13;3.72;;;16.20;47.60;;;;;;6214338;23;20437;-73
2023/04/19 11:52:21;;;;;;;5.67;3.67;;;16.20;48.20;;;;;;6215356;23;20270;-73
2023/04/19 11:54:48;;;;;;;3.33;3.05;;;16.30;48.50;;;;;;6188529;23;20432;-74
2023/04/19 11:57:15;;;;;;;7.23;4.00;;;16.30;48.40;;;;;;6216007;23;20249;-71
2023/04/19 12:00:05;;;;;;;9.57;4.03;;;16.50;49.00;;;;;;6214654;23;20442;-73
2023/04/19 12:02:37;;;;;;;3.30;3.00;;;16.40;49.20;;;;;;6215661;23;20394;-75
2023/04/19 12:05:09;;;;;;;5.40;3.70;;;16.50;49.90;;;;;;6214792;23;20986;-74
2023/04/19 12:07:36;;;;;;;3.20;2.97;;;16.40;49.50;;;;;;6215705;23;20433;-73
2023/04/19 12:10:10;;;;;;;4.25;3.17;;;16.40;49.60;;;;;;6214307;23;20167;-75
2023/04/19 12:12:37;;;;;;;6.80;3.90;;;16.50;48.40;;;;;;6214837;23;20192;-72
2023/04/19 12:15:05;;;;;;;4.65;3.75;;;16.50;47.80;;;;;;6214687;23;20437;-73
2023/04/19 12:17:32;;;;;;;4.60;3.58;;;16.40;48.00;;;;;;6215459;23;20194;-74
2023/04/19 12:20:00;;;;;;;5.15;4.65;;;16.20;47.80;;;;;;6214236;23;20173;-74
2023/04/19 12:22:27;;;;;;;3.95;3.33;;;16.10;48.20;;;;;;6214863;23;20162;-74
2023/04/19 12:24:54;;;;;;;5.13;3.63;;;16.00;48.50;;;;;;6214800;23;20240;-73
2023/04/19 12:27:21;;;;;;;8.77;3.90;;;16.10;49.50;;;;;;6214927;23;20456;-72
2023/04/19 12:29:48;;;;;;;7.57;3.37;;;16.20;48.00;;;;;;6213887;23;20198;-75
2023/04/19 12:32:16;;;;;;;3.92;3.60;;;16.20;48.00;;;;;;6213462;23;20429;-73
2023/04/19 12:34:43;;;;;;;5.30;4.27;;;16.20;46.40;;;;;;6214307;23;20206;-73
2023/04/19 12:37:11;;;;;;;4.43;4.05;;;16.20;45.50;;;;;;6214725;23;20393;-73
2023/04/19 12:39:38;;;;;;;5.57;3.35;;;16.20;45.70;;;;;;6211819;23;20182;-73
2023/04/19 12:42:05;;;;;;;10.03;3.27;;;16.20;44.20;;;;;;6214417;23;20183;-75
2023/04/19 12:44:32;;;;;;;6.90;4.30;;;16.30;43.40;;;;;;6214440;23;20461;-75
2023/04/19 12:46:59;;;;;;;4.10;3.23;;;16.30;41.80;;;;;;6215203;23;20241;-75
2023/04/19 12:49:26;;;;;;;7.85;3.90;;;16.20;42.10;;;;;;6214231;23;20467;-73
2023/04/19 12:51:54;;;;;;;4.50;3.42;;;16.20;42.90;;;;;;6214154;23;20221;-72
2023/04/19 12:54:23;;;;;;;4.77;4.17;;;16.20;41.50;;;;;;6214552;23;20270;-74